2.500,60 22:38:26
Pkt Einheit
Index Typ
-0,30% %
-7,64 abs
ISIN: US78378X1072 WKN: A0AET0 Börse: Chicago Mercantile Exchange Datum: 21:09:17

S&P 500 Index

Name Kurs +/- abs. +/- % Zeit Vorwoche 1 Monat 3 Monate 1 Jahr YTD
21st Century Fox Inc. 26,330 -0,050 -0,19 21.09.17 1,27 % -2,08 % -1,97 % 8,35 % -3,38 %
21st Century Fox Inc. 26,760 -0,110 -0,41 21.09.17 0,98 % -2,23 % -1,80 % 11,55 % -4,56 %
3M Co. 210,440 -0,070 -0,03 21.09.17 -0,47 % 2,88 % -1,14 % 17,18 % 17,85 %
Abbott Laboratories 51,430 -0,460 -0,89 21.09.17 -0,50 % 5,22 % 5,89 % 22,69 % 33,90 %
AbbVie Inc. 87,410 0,000 0,00 21.09.17 -2,03 % 23,64 % 22,51 % 36,37 % 39,59 %
Accenture PLC 136,660 -1,350 -0,98 21.09.17 1,33 % 6,62 % 7,51 % 22,35 % 16,67 %
Activision Blizzard Inc. 64,110 -0,890 -1,37 21.09.17 -1,63 % 3,77 % 5,65 % 43,52 % 77,54 %
Acuity Brands Inc. 161,420 0,820 0,51 21.09.17 -9,31 % -8,66 % -7,63 % -37,66 % -30,08 %
Adobe Systems Inc. 149,300 -0,660 -0,44 21.09.17 -3,65 % 0,03 % 3,51 % 38,52 % 45,02 %
Advance Auto Parts Inc. 93,680 -1,070 -1,13 21.09.17 -6,34 % -1,59 % -21,97 % -35,98 % -44,61 %
Advanced Micro Devices Inc. 13,410 -0,330 -2,40 21.09.17 9,38 % 11,29 % -4,08 % 113,20 % 18,25 %
AES Corp., The 11,130 -0,150 -1,33 21.09.17 -1,15 % -0,89 % -4,63 % -15,04 % -4,22 %
Aetna Inc. 153,410 -1,620 -1,04 21.09.17 -5,76 % -0,86 % 0,86 % 31,47 % 23,71 %
Affiliated Managers Group Inc. 184,180 1,020 0,56 21.09.17 3,14 % 7,05 % 13,79 % 27,35 % 26,76 %
AFLAC Inc. 83,630 -0,290 -0,35 21.09.17 1,85 % 4,92 % 7,26 % 13,78 % 20,16 %
Agilent Technologies Inc. 65,920 -0,170 -0,26 21.09.17 0,37 % 6,77 % 10,25 % 43,18 % 44,69 %
Air Products & Chemicals Inc. 151,050 0,070 0,05 21.09.17 0,65 % 4,06 % 5,28 % 1,55 % 5,03 %
Akamai Technologies Inc. 47,520 -0,150 -0,31 21.09.17 1,97 % 5,81 % -3,57 % -8,98 % -28,73 %
Alaska Air Group Inc. 72,910 -0,090 -0,12 21.09.17 -5,91 % -6,50 % -19,73 % 9,31 % -17,83 %
Albemarle Corp. 134,890 -1,190 -0,87 21.09.17 7,06 % 18,87 % 27,03 % 68,21 % 56,70 %
Alexandria Real Est. Equ. Inc. 119,340 -0,010 -0,01 21.09.17 -1,23 % -1,45 % 0,24 % 8,14 % 7,39 %
Alexion Pharmaceuticals Inc. 142,920 0,000 0,00 21.09.17 -1,18 % 7,11 % 15,65 % 9,63 % 16,81 %
Align Technology Inc. 186,320 -2,460 -1,30 21.09.17 0,79 % 10,92 % 24,70 % 95,43 % 93,82 %
Allegion PLC 83,470 -0,100 -0,12 21.09.17 1,03 % 7,74 % 2,40 % 22,97 % 30,42 %
Allergan Inc. 202,660 -7,340 -3,50 21.09.17 -9,41 % -9,11 % -17,08 % -15,00 % -3,50 %
Alliance Data Systems Corp. 215,810 5,480 2,61 21.09.17 -1,40 % -2,41 % -16,66 % 0,08 % -5,55 %
Alliant Energy Corp. 42,060 -0,090 -0,21 21.09.17 -2,00 % -0,80 % 0,62 % 5,94 % 11,01 %
Allstate Corp., The 90,670 -0,710 -0,78 21.09.17 0,19 % -2,21 % 1,60 % 32,06 % 22,33 %
Alphabet Inc. (Class A) 947,550 0,010 0,00 21.09.17 0,79 % 2,90 % -3,17 % 17,77 % 19,57 %
Alphabet Inc. (Class C) 932,450 0,870 0,09 21.09.17 0,79 % 2,84 % -2,81 % 20,13 % 20,81 %
Altria Group Inc. 61,500 0,280 0,46 21.09.17 -1,25 % -4,49 % -20,16 % -3,15 % -9,05 %
Amazon.com Inc. 964,650 -8,560 -0,88 21.09.17 -2,78 % 1,19 % -3,75 % 22,15 % 28,64 %
Ameren Corp. 58,810 0,070 0,12 21.09.17 -1,26 % -0,76 % 4,14 % 15,00 % 12,10 %
American Airlines Group Inc. 46,290 0,870 1,92 21.09.17 0,22 % 1,27 % -4,42 % 33,52 % -0,86 %
American Electric Power Co.Inc 71,450 -0,230 -0,32 21.09.17 -1,99 % -1,68 % -1,31 % 7,95 % 13,48 %
American Express Co. 88,420 -0,010 -0,01 21.09.17 2,59 % 3,66 % 7,55 % 37,55 % 19,36 %
American International Grp Inc 60,500 0,380 0,63 21.09.17 1,15 % -1,29 % -4,30 % 4,15 % -7,36 %
American Tower Corp. 139,400 -1,000 -0,71 21.09.17 -2,42 % -1,33 % 6,73 % 26,61 % 31,91 %
American Water Works Co. Inc. 81,790 -0,610 -0,74 21.09.17 -0,58 % -0,35 % 1,34 % 6,54 % 13,03 %
Ameriprise Financial Inc. 142,120 0,630 0,45 21.09.17 2,24 % 3,39 % 10,82 % 40,91 % 28,09 %
AmerisourceBergen Corp. 80,380 0,880 1,11 21.09.17 -0,38 % 3,00 % -15,94 % -3,18 % 2,80 %
AMETEK Inc. 66,110 -0,290 -0,44 21.09.17 1,30 % 5,98 % 9,25 % 39,68 % 36,03 %
Amgen Inc. 186,640 -1,530 -0,81 21.09.17 -1,48 % 10,99 % 8,92 % 7,38 % 27,67 %
Amphenol Corp. 83,140 0,150 0,18 21.09.17 1,13 % 5,63 % 11,25 % 28,10 % 23,72 %
Anadarko Petroleum Corp. 48,490 3,680 8,21 21.09.17 11,39 % 15,32 % 6,92 % -20,59 % -30,46 %
Analog Devices Inc. 84,240 0,550 0,66 21.09.17 2,31 % 8,42 % 5,33 % 33,10 % 16,00 %
Andeavor 103,810 0,110 0,11 21.09.17 2,23 % 11,92 % 13,89 % 26,92 % 18,71 %
Ansys Inc. 120,820 -2,170 -1,76 21.09.17 -6,45 % -4,55 % -1,27 % 29,61 % 30,63 %
Anthem Inc. 183,500 0,010 0,01 21.09.17 -1,74 % -4,91 % -4,46 % 42,70 % 27,63 %
AON PLC 144,940 -1,040 -0,71 21.09.17 1,97 % 4,90 % 7,12 % 29,28 % 29,96 %
Apache Corp. 43,360 0,310 0,72 21.09.17 2,70 % 9,72 % -5,04 % -28,79 % -31,68 %
Apartment Inv. & Managem. Co. 44,890 -0,330 -0,73 21.09.17 -1,90 % -1,17 % 2,05 % -1,08 % -1,23 %
Apple Inc. 153,390 -2,680 -1,72 21.09.17 -3,09 % -2,43 % 5,16 % 35,09 % 32,44 %
Applied Materials Inc. 47,150 -0,130 -0,27 21.09.17 0,21 % 8,87 % 8,09 % 54,24 % 46,11 %
Archer Daniels Midland Co. 43,290 -0,030 -0,07 21.09.17 -0,37 % 4,16 % 4,95 % 1,12 % -5,17 %
Arconic Inc. 26,790 0,590 2,25 21.09.17 5,64 % 9,44 % 5,81 % 0,00 % 44,50 %
Assurant Inc. 93,600 0,320 0,34 21.09.17 0,36 % -5,82 % -8,46 % 3,20 % 0,80 %
AT & T Inc. 38,220 -0,210 -0,55 21.09.17 5,23 % 1,70 % 0,18 % -5,79 % -10,13 %
Autodesk Inc. 112,290 -0,440 -0,39 21.09.17 -2,75 % 2,31 % 6,24 % 56,63 % 51,72 %
Automatic Data Processing Inc. 106,790 -0,040 -0,04 21.09.17 0,00 % 3,79 % 4,19 % 20,15 % 3,90 %
AutoZone Inc. 553,490 9,890 1,82 21.09.17 -1,79 % 6,95 % -3,57 % -26,34 % -29,92 %
Avalonbay Communities Inc. 179,810 -0,990 -0,55 21.09.17 -2,13 % -5,52 % -7,58 % 0,56 % 1,50 %
Avery Dennison Corp. 98,820 -0,060 -0,06 21.09.17 3,20 % 6,48 % 12,64 % 26,45 % 40,73 %
Baker Hughes a GE Co. 36,580 -0,920 -2,45 21.09.17 0,55 % 12,42 % 0,00 % 0,00 % 0,00 %
Ball Corp. 40,800 0,020 0,05 21.09.17 0,97 % 3,06 % -2,35 % 3,17 % 8,70 %
Bank of America Corp. 25,160 0,100 0,40 21.09.17 3,80 % 7,61 % 8,78 % 60,77 % 13,85 %
Bard Inc. C.R. 317,370 -1,190 -0,37 21.09.17 -0,98 % -0,64 % 0,75 % 38,89 % 41,27 %
Baxter International Inc. 63,380 -0,900 -1,40 21.09.17 -1,46 % 3,71 % 5,55 % 32,26 % 42,94 %
BB&T Corp. 45,240 0,380 0,85 21.09.17 2,65 % -1,39 % 3,64 % 18,21 % -3,79 %
Becton, Dickinson & Co. 191,560 -2,440 -1,26 21.09.17 -3,06 % -3,82 % -1,00 % 6,79 % 15,71 %
Berkshire Hathaway Inc. 183,160 -0,660 -0,36 21.09.17 2,57 % 2,70 % 7,98 % 25,06 % 12,38 %
Best Buy Co. Inc. 53,950 1,360 2,59 21.09.17 -7,59 % -10,75 % -2,21 % 40,97 % 26,44 %
Biogen Inc. 315,030 -3,970 -1,24 21.09.17 -2,67 % 11,26 % 13,08 % 0,97 % 11,09 %
Bk of New York MellonCorp.,The 52,420 0,020 0,04 21.09.17 2,52 % 0,48 % 5,71 % 29,37 % 10,64 %
Blackrock Inc. 433,630 -0,440 -0,10 21.09.17 1,87 % 4,40 % 3,06 % 17,08 % 13,95 %
Block H. & R. Inc. 26,210 0,000 0,00 21.09.17 -0,87 % -11,84 % -15,15 % 14,75 % 14,01 %
Boeing Co. 256,040 0,580 0,23 21.09.17 4,41 % 8,64 % 28,55 % 96,05 % 64,47 %
BorgWarner Inc. 49,590 0,130 0,26 21.09.17 2,73 % 11,14 % 20,86 % 45,47 % 25,74 %
Boston Properties Inc. 122,840 2,060 1,71 21.09.17 0,42 % 1,71 % -1,82 % -10,43 % -2,34 %
Boston Scientific Corp. 28,760 -0,080 -0,28 21.09.17 -0,72 % 6,95 % 3,05 % 21,20 % 32,96 %
Brighthouse Financial Inc. 57,680 0,190 0,33 21.09.17 3,70 % 1,44 % 0,00 % 0,00 % 0,00 %
Bristol-Myers Squibb Co. 63,330 -0,160 -0,25 21.09.17 1,02 % 11,81 % 12,95 % 13,23 % 8,37 %
Broadcom Ltd. 240,380 -2,530 -1,04 21.09.17 -2,66 % -3,70 % -1,93 % 41,54 % 35,98 %
Brown-Forman Corp. Class B 53,990 -0,330 -0,61 21.09.17 -0,41 % 6,07 % 10,57 % 15,19 % 20,19 %
C.H. Robinson Worldwide Inc. 73,000 0,210 0,29 21.09.17 3,15 % 9,18 % 8,68 % 6,51 % -0,35 %
CA Inc. 32,360 -0,250 -0,77 21.09.17 -2,44 % -0,61 % -9,61 % -1,10 % 1,86 %
Cabot Oil & Gas Corp. 26,410 0,120 0,46 21.09.17 -1,23 % 7,80 % 18,17 % 4,64 % 13,06 %
Cadence Design Systems Inc. 38,430 0,070 0,18 21.09.17 1,08 % 3,89 % 12,14 % 55,84 % 52,38 %
Campbell Soup Co. 45,660 -0,850 -1,83 21.09.17 -4,38 % -15,16 % -15,60 % -18,03 % -24,49 %
Capital One Financial Corp. 81,580 -0,220 -0,27 21.09.17 3,66 % 0,20 % 0,87 % 13,81 % -6,49 %
Cardinal Health Inc. 66,770 0,060 0,09 21.09.17 -1,02 % 3,74 % -13,82 % -13,12 % -7,23 %
Carmax Inc. 68,840 0,170 0,25 21.09.17 -0,89 % 7,33 % 15,23 % 26,03 % 6,91 %
Carnival Corp. 64,450 -0,030 -0,05 21.09.17 -6,24 % -5,91 % -2,98 % 40,66 % 23,80 %
Caterpillar Inc. 124,780 -0,070 -0,06 21.09.17 3,57 % 9,84 % 20,60 % 49,49 % 34,55 %
CBOE Holdings Inc. 106,260 -0,140 -0,13 21.09.17 0,39 % 9,44 % 19,64 % 52,37 % 43,81 %
CBRE Group Inc. 37,190 0,060 0,16 21.09.17 0,62 % 4,73 % 5,83 % 29,40 % 18,10 %
CBS Corp. Class B 58,790 -0,260 -0,44 21.09.17 1,10 % -9,57 % -5,98 % 17,39 % -7,59 %
Celgene Corp. 143,780 -0,460 -0,32 21.09.17 2,25 % 12,83 % 8,24 % 31,21 % 24,22 %
Centene Corp. 90,740 -0,020 -0,02 21.09.17 -5,40 % 7,69 % 13,26 % 32,89 % 60,57 %
CenterPoint Energy Inc. 29,490 -0,215 -0,72 21.09.17 -2,16 % 0,72 % 5,40 % 22,77 % 19,68 %
CenturyLink Inc. 18,490 -0,180 -0,96 21.09.17 -1,12 % -3,70 % -24,35 % -31,32 % -22,25 %
Cerner Corp. 69,480 -0,220 -0,32 21.09.17 -3,42 % 7,01 % 3,47 % 11,40 % 46,68 %
CF Industries Holdings Inc. 35,960 0,770 2,19 21.09.17 11,12 % 23,24 % 34,68 % 56,14 % 14,23 %
Charter Communications Inc. 361,080 -5,930 -1,62 21.09.17 -3,97 % -8,92 % 8,15 % 31,65 % 25,41 %
Chesapeake Energy Corp. 4,170 -0,020 -0,48 21.09.17 1,71 % 9,16 % -7,74 % -38,13 % -40,60 %
Chevron Corp. 116,470 0,100 0,09 21.09.17 1,69 % 10,11 % 11,47 % 16,90 % -1,05 %
Chipotle Mexican Grill Inc. 313,220 0,830 0,27 21.09.17 0,85 % 1,50 % -25,00 % -21,64 % -16,99 %
Chubb Corp., The 142,950 -0,930 -0,65 21.09.17 0,11 % -1,64 % -2,50 % 13,01 % 8,20 %
Church & Dwight Co. Inc. 48,490 -1,200 -2,41 21.09.17 -2,36 % -3,79 % -8,54 % 1,34 % 9,73 %
Cigna Corp. 182,130 0,310 0,17 21.09.17 -1,67 % 2,33 % 7,02 % 37,39 % 36,54 %
Cimarex Energy Co. 109,370 0,050 0,05 21.09.17 2,49 % 11,83 % 18,47 % -15,01 % -19,52 %
Cincinnati Financial Corp. 75,580 -0,750 -0,98 21.09.17 -0,05 % -1,82 % 5,53 % 0,01 % -0,22 %
Cintas Corp. 137,450 0,930 0,68 21.09.17 2,11 % 2,67 % 6,05 % 19,82 % 18,94 %
Cisco Systems Inc. 32,700 0,090 0,28 21.09.17 1,58 % 6,58 % 2,70 % 4,27 % 8,21 %
Citigroup Inc. 71,760 0,300 0,42 21.09.17 3,64 % 8,81 % 12,42 % 53,01 % 20,75 %
Citizens Financial Group Inc. 36,270 0,480 1,34 21.09.17 4,28 % 10,92 % 3,04 % 49,20 % 1,80 %
Citrix Systems Inc. 76,280 -0,190 -0,25 21.09.17 -0,46 % 1,58 % -5,45 % -9,72 % -14,59 %
Clorox Co., The 131,330 -4,040 -2,98 21.09.17 -2,53 % -5,40 % -5,75 % 5,56 % 9,42 %
CME Group Inc. 133,800 0,000 0,00 21.09.17 1,27 % 6,80 % 7,13 % 22,85 % 15,99 %
CMS Energy Corp. 47,060 -0,010 -0,02 21.09.17 -1,73 % -2,53 % -1,36 % 7,94 % 13,07 %
Coach Inc. 39,610 0,150 0,38 21.09.17 -4,85 % -3,13 % -14,91 % 9,94 % 13,11 %
Cognizant Tech. Solutions 71,860 -0,600 -0,83 21.09.17 0,17 % 3,37 % 5,82 % 34,44 % 28,21 %
Colgate-Palmolive Co. 71,370 -1,180 -1,63 21.09.17 -1,07 % -0,34 % -5,70 % -2,23 % 9,06 %
Comcast Corp. Class A 37,470 0,010 0,03 21.09.17 -0,35 % -8,16 % -6,98 % 11,58 % 8,53 %
Comerica Inc. 73,330 0,800 1,10 21.09.17 7,55 % 6,65 % 1,40 % 57,67 % 7,66 %
ConAgra Brands Inc. 33,420 -0,280 -0,83 21.09.17 -3,07 % -3,13 % -11,31 % -22,73 % -15,50 %
Concho Resources Inc. 126,300 1,520 1,22 21.09.17 3,71 % 16,41 % 10,03 % -1,57 % -4,75 %
ConocoPhillips 48,690 0,360 0,74 21.09.17 6,24 % 14,56 % 8,32 % 21,54 % -2,89 %
Consolidated Edison Inc. 82,430 -0,170 -0,21 21.09.17 -2,46 % -1,58 % -2,62 % 5,60 % 11,88 %
Constellation Brands Inc. 201,020 -0,750 -0,37 21.09.17 -1,64 % 1,46 % 8,95 % 21,25 % 31,12 %
Cooper Companies Inc. 232,410 -3,700 -1,57 21.09.17 -5,92 % -6,17 % -4,70 % 24,83 % 32,86 %
Corning Inc. 30,100 0,070 0,23 21.09.17 2,91 % 6,78 % 1,14 % 31,10 % 24,02 %
Costco Wholesale Corp. 161,480 -1,370 -0,84 21.09.17 -0,55 % 2,81 % -1,02 % 5,75 % 0,86 %
Coty Inc. 16,000 -0,650 -3,90 21.09.17 -6,76 % -18,16 % -15,70 % -32,91 % -12,62 %
Crown Castle Internatl Corp. 101,600 -0,240 -0,24 21.09.17 -3,06 % -3,08 % 2,11 % 8,73 % 17,09 %
CSRA Inc. 32,090 0,100 0,31 21.09.17 1,52 % 0,94 % 0,44 % 19,16 % 0,79 %
CSX Corp. 52,850 0,040 0,08 21.09.17 1,48 % 8,52 % 1,26 % 77,89 % 47,09 %
Cummins Inc. 166,480 -0,740 -0,44 21.09.17 -0,12 % 9,48 % 4,58 % 37,68 % 21,81 %
CVS Health Corp. 79,560 -1,140 -1,41 21.09.17 -3,73 % 2,47 % 1,79 % -11,85 % 0,82 %
D.R. Horton Inc. 36,860 -0,190 -0,51 21.09.17 -1,26 % 3,02 % 8,51 % 21,81 % 34,87 %
Danaher Corp. 86,420 -0,040 -0,05 21.09.17 -2,30 % 6,59 % -0,07 % 11,58 % 11,02 %
Darden Restaurants Inc. 83,060 -0,740 -0,88 21.09.17 -0,17 % -1,72 % -5,91 % 33,19 % 14,22 %
DaVita Inc. 61,260 0,730 1,21 21.09.17 2,60 % 8,48 % -4,71 % -6,94 % -4,58 %
Deere & Co. 124,780 0,830 0,67 21.09.17 5,42 % 7,09 % 0,00 % 50,25 % 21,10 %
Delphi Automotive PLC 101,040 -0,110 -0,11 21.09.17 3,22 % 8,75 % 17,75 % 45,34 % 50,02 %
Delta Air Lines Inc. 48,160 0,120 0,25 21.09.17 -0,23 % 0,73 % -7,86 % 26,57 % -2,09 %
Dentsply Sirona Inc. 57,810 -0,840 -1,43 21.09.17 -0,53 % 9,51 % -9,35 % -3,47 % 0,14 %
Devon Energy Corp. 35,350 0,460 1,32 21.09.17 4,28 % 16,51 % 17,25 % -16,17 % -22,60 %
Digital Realty Trust Inc. 116,230 1,280 1,11 21.09.17 -3,89 % -0,18 % -2,39 % 21,72 % 18,29 %
Discover Financial Services 60,500 0,160 0,27 21.09.17 3,15 % 2,08 % 0,23 % 5,33 % -16,08 %
Discovery Communications Inc. 20,300 0,230 1,15 21.09.17 0,50 % -3,75 % -18,15 % -14,96 % -24,25 %
Discovery Communications Inc. 21,350 0,090 0,42 21.09.17 -0,61 % -4,43 % -16,54 % -12,93 % -22,11 %
Dish Network Corp. 53,250 -0,310 -0,58 21.09.17 0,34 % -6,00 % -15,80 % 0,00 % -8,08 %
Dollar General Corp. (New) 76,770 -0,780 -1,01 21.09.17 -0,60 % 2,76 % 7,03 % 6,36 % 3,63 %
Dollar Tree Inc. 83,140 -0,280 -0,34 21.09.17 -0,38 % 11,97 % 22,17 % 4,08 % 7,72 %
Dominion Energy Inc. 77,300 -0,320 -0,41 21.09.17 -2,36 % -1,83 % -2,35 % 0,72 % 0,93 %
Dover Corp. 92,040 -0,240 -0,26 21.09.17 2,22 % 9,96 % 18,53 % 30,48 % 22,83 %
Dowdupont Inc. 70,320 -0,090 -0,13 21.09.17 0,43 % 0,00 % 0,00 % 0,00 % 0,00 %
Dr. Pepper Snapple Group Inc. 89,500 -2,180 -2,38 21.09.17 -2,28 % -2,08 % -6,56 % -2,08 % -1,30 %
DTE Energy Co. 109,020 0,140 0,13 21.09.17 -2,29 % -1,69 % -1,01 % 13,74 % 10,67 %
Duke Energy Corp. (New) 85,160 -0,040 -0,05 21.09.17 -2,67 % -1,64 % -1,63 % 3,98 % 9,71 %
Duke Realty Corp. 29,420 -0,070 -0,24 21.09.17 -0,94 % -0,03 % 3,23 % 8,16 % 10,77 %
DXC Technology Co. 84,840 -0,050 -0,06 21.09.17 -0,66 % 1,89 % 11,02 % 0,00 % 0,00 %
E*TRADE Financial Corp. 41,780 0,000 0,00 21.09.17 2,60 % 4,87 % 13,47 % 46,60 % 20,58 %
Eastman Chemical Co. 85,800 -0,250 -0,29 21.09.17 0,88 % 3,21 % 3,09 % 31,27 % 14,08 %
Eaton Corporation PLC 78,060 0,290 0,37 21.09.17 3,23 % 9,73 % 2,82 % 22,49 % 16,35 %
eBay Inc. 38,250 -0,290 -0,75 21.09.17 -0,16 % 11,71 % 9,41 % 19,64 % 28,83 %
Ecolab Inc. 130,940 0,140 0,11 21.09.17 -0,05 % 0,41 % -0,91 % 10,51 % 11,70 %
Edison International 78,660 -0,430 -0,54 21.09.17 -2,92 % -1,40 % -3,43 % 4,88 % 9,27 %
Edwards Lifesciences Corp. 110,330 -1,390 -1,24 21.09.17 -1,05 % -3,41 % -7,20 % -7,42 % 17,75 %
Electronic Arts Inc. 118,020 -2,320 -1,93 21.09.17 -0,98 % 1,01 % 4,29 % 41,39 % 49,85 %
Eli Lilly and Company 83,330 1,310 1,60 21.09.17 0,31 % 7,69 % 0,83 % 3,04 % 13,30 %
Emerson Electric Co. 63,440 -0,450 -0,70 21.09.17 2,50 % 9,38 % 8,19 % 22,54 % 13,79 %
Entergy Corp. 77,960 0,160 0,21 21.09.17 -1,49 % -0,37 % -1,78 % -3,72 % 6,11 %
Envision Healthcare Hldgs Inc. 44,760 0,390 0,88 21.09.17 -9,12 % -12,68 % -23,15 % 111,53 % -29,28 %
EOG Resources Inc. 93,890 -0,290 -0,31 21.09.17 2,30 % 12,19 % 7,77 % 0,40 % -7,13 %
EQT Corp. 63,840 -0,660 -1,02 21.09.17 -1,59 % 6,08 % 25,60 % -13,92 % -2,39 %
Equifax Inc. 98,250 2,250 2,34 21.09.17 1,64 % -29,74 % -29,33 % -26,19 % -16,90 %
Equinix Inc. 446,790 -2,450 -0,55 21.09.17 -1,78 % -0,78 % 2,36 % 25,18 % 25,01 %
Equity Residential 66,470 -0,250 -0,37 21.09.17 -1,37 % -1,92 % -2,26 % 0,70 % 3,28 %
Essex Property Trust Inc. 255,270 -0,860 -0,34 21.09.17 -2,63 % -3,38 % -4,21 % 10,88 % 9,79 %
Estée Lauder Compan. Inc., The 108,250 -1,980 -1,80 21.09.17 -1,60 % 1,66 % 11,22 % 22,66 % 41,52 %
Everest Reinsurance Group Ltd. 227,300 2,480 1,10 21.09.17 -0,87 % -13,40 % -11,41 % 17,35 % 5,04 %
Eversource Energy 61,440 -0,040 -0,07 21.09.17 -2,55 % -2,43 % -2,04 % 10,80 % 11,24 %
Exelon Corp. 37,150 0,240 0,65 21.09.17 -2,49 % -2,13 % 1,31 % 6,60 % 4,68 %
Expedia Inc. 143,120 0,110 0,08 21.09.17 -0,18 % -1,32 % -4,24 % 32,49 % 26,34 %
Expeditors Intl of Wash. Inc. 57,750 -0,240 -0,41 21.09.17 1,24 % 5,04 % 4,75 % 13,79 % 9,04 %
Express Scripts Holding Inc. 61,720 -0,100 -0,16 21.09.17 -0,99 % 2,30 % -3,52 % -11,39 % -10,29 %
Extra Space Storage Inc. 79,340 -0,120 -0,15 21.09.17 1,24 % 5,06 % 1,60 % 2,18 % 2,72 %
Exxon Mobil Corp. 79,890 -0,660 -0,82 21.09.17 -0,25 % 4,60 % -1,90 % -4,09 % -11,49 %
F5 Networks Inc. 117,710 0,880 0,75 21.09.17 0,68 % 1,38 % -8,74 % -1,37 % -18,66 %
Facebook Inc. 171,110 -1,060 -0,62 21.09.17 0,09 % 1,98 % 11,18 % 31,69 % 48,61 %
Fastenal Co. 44,490 -0,070 -0,16 21.09.17 2,13 % 11,31 % 4,17 % 10,56 % -5,30 %
Federal Realty Invest. Trust 123,850 -0,780 -0,63 21.09.17 -5,44 % -3,32 % 0,42 % -20,45 % -12,85 %
Fedex Corp. 218,830 -1,670 -0,76 21.09.17 2,01 % 6,06 % 3,08 % 25,87 % 17,52 %
Fidelity Natl Inform.Svcs Inc. 92,720 -0,080 -0,09 21.09.17 0,66 % 2,05 % 9,10 % 20,23 % 22,58 %
Fifth Third Bancorp 27,540 0,130 0,47 21.09.17 4,68 % 5,07 % 8,47 % 32,79 % 2,11 %
FirstEnergy Corp. 31,150 -0,040 -0,13 21.09.17 -1,55 % -5,38 % 5,84 % -9,89 % 0,58 %
Fiserv Inc. 124,760 -0,340 -0,27 21.09.17 0,98 % 3,30 % -0,49 % 22,90 % 17,35 %
Flir Systems Inc. 39,510 -0,200 -0,50 21.09.17 0,69 % 5,73 % 11,89 % 25,59 % 9,17 %
Flowserve Corp. 42,190 -0,380 -0,89 21.09.17 2,01 % 12,27 % -4,20 % -10,46 % -12,20 %
Fluor Corp. (New) 41,100 0,120 0,29 21.09.17 1,73 % 10,39 % -6,10 % -16,73 % -21,74 %
FMC Corp. 90,440 -1,510 -1,64 21.09.17 0,70 % 8,36 % 19,65 % 86,17 % 59,90 %
Foot Locker Inc. 33,700 -0,870 -2,52 21.09.17 -7,97 % 5,91 % -29,53 % -49,34 % -52,46 %
Ford Motor Co. 11,720 0,010 0,09 21.09.17 1,38 % 10,88 % 6,16 % -3,06 % -3,38 %
Fortive Corp. 69,930 -0,240 -0,34 21.09.17 1,07 % 6,89 % 8,64 % 37,17 % 30,39 %
Fortune Brands Home & Securi 64,890 0,380 0,59 21.09.17 0,71 % 3,30 % -0,22 % 13,78 % 21,38 %
Franklin Resources Inc. 42,580 -0,390 -0,91 21.09.17 1,02 % 1,94 % -3,80 % 19,31 % 7,58 %
Freep. McMoRan Copp.&Gold Inc. Reg. Shares DL-,10 13,980 -0,200 -1,41 21.09.17 0,87 % -5,09 % 24,71 % 32,64 % 5,99 %
Gallagher & Co., Arthur J. 60,670 -0,050 -0,08 21.09.17 1,12 % 4,37 % 4,78 % 19,76 % 16,76 %
Gap Inc. 27,860 -0,140 -0,50 21.09.17 0,22 % 23,44 % 27,21 % 23,93 % 24,15 %
Garmin Ltd. 52,000 -0,180 -0,34 21.09.17 -0,59 % 2,00 % 1,62 % 7,53 % 7,24 %
Gartner Inc. 123,380 -1,040 -0,84 21.09.17 0,93 % 3,90 % 0,13 % 37,72 % 22,07 %
General Dynamics Corp. 205,720 1,450 0,71 21.09.17 4,09 % 3,52 % 0,90 % 34,37 % 19,15 %
General Electric Co. 24,750 0,430 1,77 21.09.17 2,02 % 1,06 % -10,91 % -17,09 % -21,68 %
General Growth Prop.Inc.(New) 20,740 -0,010 -0,05 21.09.17 -4,42 % -0,19 % -12,16 % -26,69 % -16,97 %
General Mills Inc. 51,690 -0,480 -0,92 21.09.17 -6,10 % -9,77 % -8,04 % -20,79 % -16,32 %
General Motors Co. 39,100 0,220 0,57 21.09.17 0,80 % 12,00 % 14,56 % 21,77 % 12,23 %
Genuine Parts Co. 86,350 -0,370 -0,43 21.09.17 -0,05 % 4,45 % -3,94 % -13,59 % -9,62 %
Gilead Sciences Inc. 82,620 -0,020 -0,02 21.09.17 0,41 % 13,80 % 22,40 % 1,13 % 15,37 %
Global Payments Inc. 96,340 0,720 0,75 21.09.17 -0,71 % 1,87 % 7,51 % 26,22 % 38,80 %
Goodyear Tire & Rubber Co.,The 32,460 0,190 0,59 21.09.17 0,65 % 9,15 % -3,48 % 1,28 % 5,15 %
Grainger Inc., W.W. 175,590 0,410 0,23 21.09.17 3,72 % 10,85 % 1,10 % -19,61 % -24,40 %
Halliburton Co. 43,480 -0,130 -0,30 21.09.17 3,08 % 12,24 % 2,96 % 1,78 % -19,62 %
Hanesbrands Inc. 24,500 -0,140 -0,57 21.09.17 -2,89 % 5,15 % 11,16 % -6,27 % 13,58 %
Harley-Davidson Inc. 47,960 -0,390 -0,81 21.09.17 -1,94 % 1,57 % -14,30 % -8,51 % -17,79 %
Harris Corp. 131,060 -0,540 -0,41 21.09.17 5,48 % 10,54 % 17,32 % 45,78 % 27,90 %
Hartford Finl SvcsGrp Inc.,The 54,350 -0,780 -1,41 21.09.17 1,91 % -1,68 % 5,02 % 27,88 % 14,06 %
Hasbro Inc. 94,840 -0,680 -0,71 21.09.17 -0,24 % 0,00 % -14,73 % 20,10 % 21,92 %
HCA Healthcare Inc. 77,650 -0,100 -0,13 21.09.17 -2,78 % -0,78 % -7,61 % 2,93 % 4,90 %
HCP Inc. 28,570 -0,470 -1,62 21.09.17 -3,09 % -2,76 % -13,56 % -25,11 % -3,87 %
Helmerich & Payne Inc. 50,430 -0,120 -0,24 21.09.17 1,31 % 16,60 % -2,87 % -14,55 % -34,84 %
Henry Schein Inc. 79,320 -1,070 -1,33 21.09.17 -50,78 % -53,57 % -56,72 % -51,88 % -47,72 %
Hershey Co., The 107,550 -0,870 -0,80 21.09.17 -1,62 % -0,06 % -3,60 % 11,61 % 3,98 %
Hess Corp. 43,630 0,170 0,39 21.09.17 3,27 % 14,54 % 8,24 % -7,17 % -29,96 %
Hewlett Packard Enterprise Co. 13,790 0,160 1,17 21.09.17 2,38 % -20,34 % -16,78 % -40,35 % -40,41 %
Hilton Worldwide Holdings Inc. 67,340 0,300 0,45 21.09.17 1,23 % 9,00 % 2,65 % -3,70 % -17,48 %
Hologic Inc. 37,530 0,150 0,40 21.09.17 -0,56 % -0,27 % -18,04 % -2,60 % -6,46 %
Honeywell International Inc. 140,860 2,170 1,56 21.09.17 2,66 % 3,91 % 4,92 % 21,50 % 21,59 %
Hormel Foods Corp. 31,190 -0,240 -0,76 21.09.17 0,91 % -8,08 % -8,26 % -16,54 % -10,40 %
Host Hotels & Resorts Inc. 18,290 -0,170 -0,92 21.09.17 0,11 % 5,24 % -1,67 % 14,46 % -2,92 %
HP Inc. 19,770 0,170 0,87 21.09.17 1,59 % 6,46 % 11,63 % 31,89 % 33,22 %
Humana Inc. 238,640 -1,040 -0,43 21.09.17 -4,79 % -4,30 % 1,03 % 35,71 % 16,96 %
Hunt (J.B.) Transport Svcs Inc 104,670 0,410 0,39 21.09.17 4,85 % 7,52 % 20,88 % 30,07 % 7,83 %
Huntington Bancshares Inc. 13,400 0,040 0,30 21.09.17 4,69 % 6,35 % 2,60 % 37,72 % 1,36 %
IDEXX Laboratories Inc. 155,760 -2,720 -1,72 21.09.17 -1,91 % 3,56 % -6,51 % 38,98 % 32,82 %
Illinois Tool Works Inc. 147,340 -0,420 -0,28 21.09.17 1,56 % 8,66 % 0,50 % 23,75 % 20,32 %
Illumina Inc. 200,240 -2,850 -1,40 21.09.17 -5,09 % 5,01 % 12,89 % 12,25 % 56,39 %
Incyte Corp. 115,050 0,180 0,16 21.09.17 -3,93 % -4,83 % -14,14 % 32,68 % 14,74 %
Ingersoll-Rand PLC 89,240 -0,060 -0,07 21.09.17 -0,87 % 4,83 % -1,37 % 36,20 % 18,92 %
Int. Business Machines (IBM) 145,260 -0,620 -0,43 21.09.17 -0,19 % 3,51 % -5,55 % -6,60 % -12,49 %
Intel Corp. 37,200 0,130 0,35 21.09.17 1,97 % 6,53 % 7,58 % -0,67 % 2,56 %
Intercontinental Exchange Inc. Registered Shares DL -,01 66,830 0,160 0,24 21.09.17 0,98 % 3,53 % 3,95 % 18,38 % 18,45 %
International Paper Co. 57,290 -0,550 -0,95 21.09.17 1,83 % 7,73 % 1,92 % 18,15 % 7,97 %
Interpublic Group of Comp.Inc. 20,850 0,060 0,29 21.09.17 3,27 % 1,26 % -13,84 % -7,29 % -10,94 %
Intl Flavors & Fragrances Inc. 143,770 -1,240 -0,86 21.09.17 0,08 % 6,59 % 5,65 % 1,89 % 22,01 %
Intuit Inc. 144,490 -0,480 -0,33 21.09.17 1,70 % 6,31 % 3,02 % 30,44 % 26,07 %
Intuitive Surgical Inc. 1.029,970 -16,400 -1,57 21.09.17 -1,01 % 4,81 % 8,05 % 46,50 % 62,41 %
Invesco Ltd. 33,560 0,110 0,33 21.09.17 2,35 % 2,07 % -3,56 % 8,82 % 10,61 %
Iron Mountain Inc. 39,770 0,050 0,13 21.09.17 1,58 % 5,83 % 16,80 % 7,72 % 22,44 %
J.M. Smucker Co. 105,920 -0,730 -0,68 21.09.17 -2,37 % -13,07 % -12,87 % -22,31 % -17,29 %
Jacobs Engineering Group Inc. 57,410 -0,310 -0,54 21.09.17 2,90 % 15,79 % 9,37 % 13,37 % 0,72 %
Johnson & Johnson 131,750 -1,470 -1,10 21.09.17 -1,81 % -1,27 % -2,34 % 10,80 % 14,36 %
Johnson Controls Inc. 39,980 0,230 0,58 21.09.17 -0,30 % 4,47 % -3,55 % -10,26 % -2,94 %
JPMorgan Chase & Co. 95,030 0,430 0,45 21.09.17 4,46 % 4,85 % 9,08 % 42,18 % 10,13 %
Juniper Networks Inc. 27,710 0,020 0,07 21.09.17 0,54 % 2,10 % -3,98 % 17,27 % -1,95 %
Kansas City Southern 107,910 0,390 0,36 21.09.17 1,51 % 0,33 % 7,67 % 20,30 % 27,18 %
Kellogg Co. 63,920 -0,805 -1,24 21.09.17 -5,47 % -8,95 % -9,31 % -17,61 % -13,28 %
Keycorp 18,250 0,100 0,55 21.09.17 2,07 % 4,82 % -0,76 % 49,10 % -0,11 %
Kimberly-Clark Corp. 118,120 -2,040 -1,70 21.09.17 -2,24 % -3,72 % -10,40 % -5,46 % 3,51 %
Kimco Realty Corp. 19,260 -0,230 -1,18 21.09.17 -6,05 % -2,28 % 9,93 % -34,33 % -23,45 %
Kinder Morgan Inc. 19,320 -0,450 -2,28 21.09.17 -0,10 % 4,15 % 4,38 % -12,74 % -6,71 %
KLA-Tencor Corp. 99,520 -0,140 -0,14 21.09.17 2,11 % 11,81 % 1,54 % 42,60 % 26,49 %
Kohl's Corp. 44,940 -0,060 -0,13 21.09.17 1,15 % 20,35 % 26,38 % 1,35 % -8,99 %
Kraft Heinz Co., The 79,000 -0,870 -1,09 21.09.17 -2,81 % -6,56 % -11,63 % -10,14 % -9,56 %
Kroger Co., The 20,220 -0,580 -2,79 21.09.17 -4,89 % -10,57 % -9,61 % -34,44 % -41,41 %
L Brands Inc. 36,880 -0,350 -0,94 21.09.17 -8,74 % 1,63 % -28,36 % -49,40 % -43,99 %
L-3 Communications Hldgs Inc. 190,320 0,810 0,43 21.09.17 3,38 % 5,66 % 12,29 % 27,13 % 25,12 %
Laboratory Corp.of Amer. Hldgs 153,890 -0,260 -0,17 21.09.17 -0,13 % 0,10 % 5,25 % 12,56 % 19,87 %
Lam Research Corp. 172,310 -0,710 -0,41 21.09.17 -0,16 % 8,78 % 14,17 % 84,70 % 62,97 %
Leggett & Platt Inc. 45,940 0,190 0,42 21.09.17 0,94 % -0,54 % -13,03 % -7,25 % -6,01 %
Lennar Corp. 50,490 0,030 0,06 21.09.17 -0,79 % -3,11 % -5,18 % 16,20 % 17,61 %
Leucadia National Corp. 24,470 0,090 0,37 21.09.17 6,07 % 2,04 % -2,08 % 27,78 % 5,25 %
Level 3 Communications Inc. 52,720 -0,210 -0,40 21.09.17 -0,40 % -0,06 % -12,26 % 8,90 % -6,46 %
Lincoln National Corp. 72,330 0,120 0,17 21.09.17 4,55 % 7,84 % 9,59 % 53,37 % 9,14 %
LKQ Corp. 34,590 -0,530 -1,51 21.09.17 -2,86 % 1,56 % 7,76 % -2,29 % 12,85 %
Lockheed Martin Corp. 308,010 0,110 0,04 21.09.17 2,21 % 2,03 % 8,84 % 26,33 % 23,23 %
Loews Corp. 47,710 -0,080 -0,17 21.09.17 1,04 % 0,65 % 1,90 % 16,74 % 1,88 %
Lowe's Companies Inc. 78,040 0,130 0,17 21.09.17 -0,54 % 5,67 % -1,39 % 8,31 % 9,73 %
Lyondellbasell Industries NV 95,790 -0,260 -0,27 21.09.17 1,44 % 8,73 % 20,38 % 22,59 % 11,67 %
M and T Bank Corp. 154,420 -0,140 -0,09 21.09.17 3,00 % 1,27 % -4,10 % 33,47 % -1,28 %
Macerich Co., The 52,920 -0,050 -0,09 21.09.17 -5,13 % -0,58 % -6,88 % -34,86 % -25,30 %
Macy's, Inc. 21,160 -0,320 -1,49 21.09.17 -3,82 % 8,35 % -2,04 % -41,24 % -40,91 %
Marathon Oil Corp. 12,730 0,310 2,50 21.09.17 6,71 % 18,20 % 9,65 % -13,11 % -26,46 %
Marathon Petroleum Corp. 54,370 -0,060 -0,11 21.09.17 3,88 % 9,95 % 5,10 % 25,83 % 7,98 %
Marriott International Inc. 107,570 -0,120 -0,11 21.09.17 1,11 % 8,57 % 3,30 % 53,36 % 30,10 %
Marsh & McLennan Cos. Inc. 82,340 -0,250 -0,30 21.09.17 1,40 % 6,30 % 3,70 % 21,75 % 21,82 %
Martin Marietta Materials Inc. 199,800 -2,350 -1,16 21.09.17 0,18 % 0,43 % -12,02 % 11,68 % -9,81 %
Masco Corp. 37,720 0,200 0,53 21.09.17 0,91 % 3,26 % -2,68 % 12,97 % 19,29 %
MasterCard Inc. 141,720 -0,520 -0,37 21.09.17 0,18 % 7,41 % 15,13 % 39,96 % 37,26 %
Mattel Inc. 15,000 -0,010 -0,07 21.09.17 -5,30 % -8,65 % -24,96 % -52,93 % -45,55 %
McCormick & Co. Inc. 96,850 -0,870 -0,89 21.09.17 -1,65 % 0,64 % -3,17 % 0,39 % 3,77 %
McDonald's Corp. 159,030 -0,850 -0,53 21.09.17 1,29 % 0,42 % 3,45 % 36,00 % 30,65 %
McKesson Corp. 152,570 2,390 1,59 21.09.17 0,59 % 4,40 % -6,32 % -8,31 % 8,63 %
Medtronic Inc. 79,530 -0,630 -0,79 21.09.17 -2,78 % -4,78 % -10,43 % -8,73 % 11,65 %
Merck & Co. Inc. 65,600 -0,190 -0,29 21.09.17 -0,79 % 5,86 % 0,21 % 4,63 % 11,43 %
MetLife Inc. 50,450 0,320 0,64 21.09.17 4,34 % 8,08 % -3,96 % 12,86 % -6,38 %
Metro One Telecom. Inc. 48,170 0,250 0,52 21.09.17 2,16 % 5,01 % 2,99 % 30,44 % 36,04 %
Mettler-Toledo Intl Inc. 631,410 -3,760 -0,59 21.09.17 1,06 % 8,87 % 5,49 % 56,65 % 50,85 %
MGM Resorts International 33,060 -0,020 -0,06 21.09.17 3,12 % 6,27 % 0,30 % 31,82 % 14,67 %
Michael Kors Holdings Ltd 45,920 -0,190 -0,41 21.09.17 3,38 % 9,46 % 33,02 % -7,87 % 6,84 %
Microchip Technology Inc. 88,380 0,060 0,07 21.09.17 -0,96 % 8,40 % 9,34 % 44,60 % 37,77 %
Micron Technology Inc. 35,910 -0,060 -0,17 21.09.17 3,85 % 21,48 % 12,18 % 103,34 % 63,82 %
Microsoft Corp. 74,210 -0,730 -0,97 21.09.17 -0,75 % 2,86 % 5,61 % 28,48 % 19,42 %
Mid-America Apartm. Comm. Inc. 107,270 -0,030 -0,03 21.09.17 0,24 % -0,17 % -2,65 % 13,12 % 9,55 %
Mohawk Industries Inc. 254,110 -1,890 -0,74 21.09.17 0,14 % 2,92 % 4,61 % 23,10 % 27,26 %
Molson Coors Brewing Co. 82,810 -0,670 -0,80 21.09.17 -5,65 % -7,71 % -3,45 % -21,25 % -14,90 %
Mondelez International Inc. 40,190 -0,220 -0,54 21.09.17 -1,20 % -6,77 % -10,65 % -6,38 % -9,34 %
Monsanto Co. 119,400 -0,040 -0,03 21.09.17 1,53 % 2,18 % 1,82 % 14,41 % 13,49 %
Monster Beverage Corp. (NEW) 55,570 -0,380 -0,68 21.09.17 -1,79 % 2,23 % 8,56 % 13,33 % 25,33 %
Moody's Corp. 136,650 -0,120 -0,09 21.09.17 1,25 % 4,46 % 14,89 % 24,84 % 44,96 %
Morgan Stanley 48,260 0,370 0,77 21.09.17 3,96 % 8,01 % 7,46 % 51,19 % 14,22 %
Mosaic Co., The 20,940 0,070 0,34 21.09.17 2,45 % 5,44 % -4,25 % -17,30 % -28,61 %
Motorola Solutions Inc. 84,990 -0,660 -0,77 21.09.17 0,48 % -2,53 % -1,45 % 12,23 % 2,53 %
Mylan N.V. 31,240 -0,150 -0,48 21.09.17 -4,96 % 2,63 % -18,37 % -25,44 % -18,11 %
Nasdaq Inc. 76,100 -0,640 -0,83 21.09.17 1,87 % 1,08 % 9,09 % 7,68 % 13,38 %
National Oilwell Varco Inc. 35,200 -0,310 -0,87 21.09.17 3,68 % 16,21 % 9,55 % 4,48 % -5,98 %
Navient Corp. 14,030 -0,030 -0,21 21.09.17 1,81 % 3,85 % -12,20 % 5,65 % -14,61 %
NetApp Inc. 41,860 0,160 0,38 21.09.17 2,98 % 7,47 % 8,42 % 17,24 % 18,68 %
Netflix Inc. 188,750 3,240 1,75 21.09.17 3,35 % 13,19 % 21,75 % 98,96 % 52,46 %
Newell Brands Inc. 41,480 -0,920 -2,17 21.09.17 -4,14 % -14,42 % -21,10 % -20,99 % -7,10 %
Newfield Exploration Co. 28,470 -0,190 -0,66 21.09.17 4,63 % 16,16 % 2,30 % -32,84 % -29,70 %
Newmont Mining Corp. 37,430 -0,200 -0,53 21.09.17 -1,66 % 2,24 % 12,91 % -8,77 % 9,86 %
News Corp. 13,080 -0,090 -0,68 21.09.17 0,23 % -1,73 % -3,33 % -6,14 % 14,14 %
News Corp. 13,450 -0,150 -1,10 21.09.17 0,75 % -2,18 % -3,58 % -5,81 % 13,98 %
Nextera Energy Inc. 146,780 0,040 0,03 21.09.17 -1,85 % -2,44 % 4,06 % 14,82 % 22,87 %
Nielsen Holdings PLC 40,520 0,100 0,25 21.09.17 2,92 % 2,97 % 8,84 % -22,57 % -3,41 %
NIKE Inc. 53,190 -0,370 -0,69 21.09.17 -1,01 % -0,78 % 1,14 % -3,89 % 4,64 %
NISOURCE Inc. 26,120 -0,070 -0,27 21.09.17 -2,97 % -2,46 % 0,38 % 2,92 % 17,98 %
Noble Energy Inc. 26,950 0,110 0,41 21.09.17 3,73 % 14,49 % -4,16 % -20,55 % -29,19 %
Nordstrom Inc. 46,280 0,060 0,13 21.09.17 -0,98 % 5,73 % 0,43 % -9,38 % -3,44 %
Norfolk Southern Corp. 130,710 -0,270 -0,21 21.09.17 2,98 % 11,08 % 11,27 % 40,38 % 20,95 %
Northern Trust Corp. 90,840 1,160 1,29 21.09.17 3,45 % 3,38 % -3,76 % 31,35 % 2,01 %
Northrop Grumman Corp. 280,420 0,380 0,14 21.09.17 5,54 % 4,75 % 7,73 % 29,91 % 20,57 %
NRG Energy Inc. 24,190 0,050 0,21 21.09.17 4,72 % -5,95 % 44,16 % 103,62 % 97,31 %
Nucor Corp. 54,510 -1,470 -2,63 21.09.17 1,02 % 1,45 % -2,61 % 13,89 % -8,42 %
NVIDIA Corp. 180,760 -5,070 -2,73 21.09.17 6,71 % 13,58 % 13,35 % 178,69 % 69,28 %
O'Reilly Automotive Inc.[New] 202,260 -1,000 -0,49 21.09.17 -2,35 % 2,25 % -8,38 % -27,65 % -27,35 %
Occidental Petroleum Corp. 62,750 0,260 0,42 21.09.17 1,90 % 6,65 % 4,79 % -12,60 % -11,91 %
Omnicom Group Inc. 74,230 -0,130 -0,17 21.09.17 1,28 % -3,48 % -10,17 % -12,57 % -12,78 %
Oneok Inc. (New) 55,060 -1,030 -1,84 21.09.17 -3,20 % 8,02 % 16,14 % 12,51 % -4,09 %
Oracle Corp. 47,970 0,010 0,02 21.09.17 -9,13 % -1,90 % 3,54 % 21,41 % 24,76 %
Paccar Inc. 70,710 -0,130 -0,18 21.09.17 2,15 % 11,79 % 12,69 % 22,40 % 10,66 %
Packaging Corp. of America 118,800 -0,480 -0,40 21.09.17 2,59 % 11,54 % 10,30 % 45,48 % 40,06 %
Parker-Hannifin Corp. 175,910 -0,380 -0,22 21.09.17 4,76 % 13,38 % 11,26 % 42,49 % 25,65 %
Patterson Companies Inc. 37,120 -0,700 -1,85 21.09.17 -2,90 % 2,09 % -22,21 % -20,68 % -9,55 %
Paychex Inc. 58,180 -0,330 -0,56 21.09.17 1,17 % 4,32 % -2,92 % -2,51 % -4,43 %
PayPal Holdings Inc. 64,630 -0,110 -0,17 21.09.17 3,84 % 8,80 % 20,71 % 60,41 % 63,74 %
Pentair PLC 66,780 -0,320 -0,48 21.09.17 2,80 % 9,71 % 2,87 % 10,37 % 19,10 %
People's United Financial Inc. 17,410 0,080 0,46 21.09.17 3,82 % 5,01 % 0,52 % 10,82 % -10,07 %
PepsiCo Inc. 112,800 -0,780 -0,69 21.09.17 -1,22 % -4,62 % -3,93 % 5,29 % 7,81 %
PerkinElmer Inc. 68,200 -0,790 -1,15 21.09.17 -0,76 % 6,31 % 0,10 % 25,62 % 30,78 %
Perrigo Co. PLC 85,040 -0,440 -0,51 21.09.17 -4,31 % 9,62 % 15,97 % -9,23 % 2,17 %
Pfizer Inc. 35,970 -0,020 -0,06 21.09.17 0,67 % 9,80 % 6,17 % 4,93 % 10,75 %
PG & E Corp. 69,180 0,130 0,19 21.09.17 -1,30 % -0,25 % 0,00 % 8,59 % 13,84 %
Philip Morris Internat. Inc. 112,920 -0,510 -0,45 21.09.17 -3,26 % -2,86 % -6,05 % 12,19 % 23,42 %
Phillips 66 89,140 0,070 0,08 21.09.17 3,36 % 8,84 % 12,99 % 11,33 % 3,16 %
Pinnacle West Capital Corp. 87,120 -0,180 -0,21 21.09.17 -2,08 % -2,33 % -1,67 % 11,25 % 11,65 %
Pioneer Natural Resources Co. 142,010 0,740 0,52 21.09.17 3,71 % 11,00 % -8,40 % -22,15 % -21,14 %
PNC Financial Services Group 133,350 0,350 0,26 21.09.17 4,84 % 5,33 % 9,01 % 46,96 % 14,01 %
PPG Industries Inc. 108,990 0,180 0,17 21.09.17 2,36 % 6,45 % -1,53 % 6,37 % 15,02 %
PPL Corp. 38,810 -0,030 -0,08 21.09.17 -0,79 % -0,33 % -1,47 % 9,48 % 13,98 %
Praxair Inc. 138,570 0,580 0,42 21.09.17 3,34 % 5,61 % 4,30 % 17,43 % 18,24 %
Principal Financial Group Inc. 62,930 -0,190 -0,30 21.09.17 1,48 % 0,32 % -1,46 % 26,44 % 8,76 %
Progressive Corp. 47,680 -0,020 -0,04 21.09.17 3,49 % -2,07 % 7,22 % 52,87 % 34,31 %
ProLogis Inc. 64,360 -0,260 -0,40 21.09.17 -1,42 % 3,66 % 10,87 % 20,77 % 21,92 %
Prudential Financial Inc. 104,780 -0,390 -0,37 21.09.17 2,76 % 3,66 % -0,10 % 29,84 % 0,69 %
Public Service Ent. Group Inc. 46,220 0,990 2,19 21.09.17 0,92 % -1,34 % 5,14 % 5,94 % 5,33 %
Public Storage 214,870 0,760 0,35 21.09.17 1,09 % 7,24 % 1,21 % -1,22 % -3,86 %
Pulte Group Inc. 25,650 -0,010 -0,04 21.09.17 -2,73 % 0,98 % 5,64 % 32,15 % 39,55 %
PVH Corp. 125,850 -0,830 -0,66 21.09.17 -0,46 % 4,82 % 19,78 % 15,16 % 39,46 %
Qorvo Inc. 70,610 0,290 0,41 21.09.17 -3,91 % 1,85 % -0,80 % 25,93 % 33,91 %
QUALCOMM Inc. 52,030 0,050 0,10 21.09.17 1,07 % 0,10 % -7,63 % -18,15 % -20,26 %
Quanta Services Inc. 37,060 0,090 0,24 21.09.17 1,65 % 9,71 % 18,71 % 44,15 % 6,34 %
Quest Diagnostics Inc. 101,550 -0,250 -0,25 21.09.17 -3,84 % -3,29 % -6,86 % 19,67 % 10,50 %
Quintiles IMS Holdings Inc. 94,220 -0,420 -0,44 21.09.17 -1,29 % 1,22 % 4,95 % 20,79 % 23,89 %
Ralph Lauren Corp. 88,480 -0,630 -0,71 21.09.17 -2,58 % 4,22 % 24,78 % -10,73 % -2,04 %
Range Resources Corp. 18,800 -0,460 -2,39 21.09.17 0,11 % 6,82 % -11,40 % -50,86 % -45,29 %
Raymond James Financial Inc. 82,740 0,420 0,51 21.09.17 5,67 % 6,46 % 6,51 % 43,20 % 19,45 %
Raytheon Co. 185,040 0,240 0,13 21.09.17 2,04 % 4,70 % 13,18 % 33,01 % 30,31 %
Realty Income Corp. 57,910 -0,430 -0,74 21.09.17 -2,51 % 0,05 % 4,49 % -13,26 % 0,75 %
Red Hat Inc. 106,840 -0,150 -0,14 21.09.17 -0,84 % 4,08 % 8,38 % 38,68 % 53,29 %
Regency Centers Corp. 62,420 -0,190 -0,30 21.09.17 -4,66 % -4,75 % 4,09 % -19,73 % -9,47 %
Regeneron Pharmaceuticals Inc. 433,450 -4,720 -1,08 21.09.17 -1,77 % -7,73 % -16,97 % 6,62 % 18,08 %
Regions Financial Corp. 14,430 0,120 0,84 21.09.17 5,41 % 2,78 % 3,37 % 49,07 % 0,49 %
Republic Services Inc. 66,150 -0,440 -0,66 21.09.17 -1,03 % 3,12 % 3,23 % 28,87 % 15,95 %
ResMed Inc. 77,320 -2,280 -2,86 21.09.17 -4,01 % 5,28 % -1,36 % 21,19 % 24,61 %
Robert Half International Inc. 47,960 0,030 0,06 21.09.17 3,83 % 10,10 % 0,69 % 27,79 % -1,68 %
Rockwell Automation Inc. 177,330 -0,250 -0,14 21.09.17 3,01 % 10,51 % 10,75 % 51,53 % 31,94 %
Rockwell Collins Inc. 130,390 0,240 0,18 21.09.17 -0,73 % 5,42 % 24,10 % 56,21 % 40,57 %
Roper Technologies Inc. 246,560 0,340 0,14 21.09.17 4,29 % 8,24 % 5,97 % 38,48 % 34,67 %
Ross Stores Inc. 60,910 -0,010 -0,02 21.09.17 0,51 % 4,01 % 7,05 % -3,85 % -7,15 %
Royal Caribbean Cruises Ltd. 116,190 0,650 0,56 21.09.17 -5,96 % -3,17 % 2,00 % 71,22 % 41,63 %
S&P Global Inc. 155,750 -0,080 -0,05 21.09.17 1,32 % 3,84 % 7,25 % 22,10 % 44,83 %
salesforce.com Inc. 94,860 -0,350 -0,37 21.09.17 -0,46 % 3,38 % 8,34 % 27,88 % 38,56 %
SBA Communications Corp. 145,010 -1,070 -0,73 21.09.17 -2,53 % 0,66 % 10,63 % 31,18 % 40,40 %
SCANA Corp. 57,180 -0,620 -1,07 21.09.17 -4,09 % -5,50 % -18,52 % -22,66 % -21,98 %
Schlumberger N.V. (Ltd.) 68,090 0,470 0,70 21.09.17 0,58 % 8,08 % 4,00 % -11,06 % -18,89 %
Schwab Corp., Charles 42,080 0,470 1,13 21.09.17 5,23 % 7,16 % 0,79 % 35,18 % 6,61 %
Scripps Networks Interact.Inc. 86,080 0,330 0,38 21.09.17 0,87 % 0,44 % 29,66 % 43,90 % 20,61 %
Seagate Technology PLC 32,720 0,340 1,05 21.09.17 0,21 % 4,01 % -21,46 % -10,82 % -14,28 %
Sealed Air Corp. 42,440 0,570 1,36 21.09.17 -1,90 % -5,35 % -6,25 % -8,06 % -6,40 %
Sempra Energy 115,910 -0,670 -0,57 21.09.17 -2,67 % -2,10 % 1,78 % 5,11 % 15,17 %
Sherwin-Williams Co. 349,610 2,570 0,74 21.09.17 0,89 % 6,06 % -1,63 % 25,59 % 30,09 %
Signet Jewelers Ltd. 64,580 -0,330 -0,51 21.09.17 -6,24 % 22,26 % 14,91 % -14,81 % -31,49 %
Simon Property Group Inc. 159,580 -0,320 -0,20 21.09.17 -2,55 % 3,23 % 0,50 % -24,32 % -10,18 %
Skyworks Solutions Inc. 102,130 -1,380 -1,33 21.09.17 -4,62 % 1,11 % -1,13 % 33,10 % 36,79 %
SL Green Realty Corp. 101,130 3,410 3,49 21.09.17 3,36 % 3,76 % -5,06 % -9,83 % -5,97 %
Smith Corp., A.O. 59,000 -0,070 -0,12 21.09.17 1,50 % 9,77 % 4,52 % 24,39 % 24,60 %
Snap-on Inc. 148,580 -0,480 -0,32 21.09.17 1,07 % 4,86 % -3,04 % -0,88 % -13,25 %
Southern Co., The 49,270 -0,180 -0,36 21.09.17 -2,24 % 2,03 % -3,77 % -7,35 % 0,16 %
Southwest Airlines Co. 54,630 0,380 0,70 21.09.17 0,52 % 2,04 % -10,49 % 48,01 % 9,61 %
Stanley Black & Decker Inc. 151,970 -0,330 -0,22 21.09.17 2,88 % 10,87 % 6,35 % 24,05 % 32,51 %
Starbucks Corp. 55,010 -0,140 -0,25 21.09.17 0,89 % 3,50 % -8,24 % 1,91 % -0,92 %
State Street Corp. 95,950 0,130 0,14 21.09.17 1,97 % 3,92 % 7,35 % 35,01 % 23,46 %
Stericycle Inc. 69,970 -0,050 -0,07 21.09.17 -2,64 % -1,87 % -8,34 % -10,29 % -9,18 %
Stryker Corp. 140,670 -2,040 -1,43 21.09.17 -2,64 % -3,07 % -0,09 % 20,81 % 17,41 %
SunTrust Banks Inc. 57,010 0,340 0,60 21.09.17 4,15 % 2,21 % 3,11 % 28,72 % 3,94 %
Symantec Corp. 33,040 -0,680 -2,02 21.09.17 0,27 % 17,41 % 14,13 % 31,79 % 38,30 %
Synchrony Financial 28,890 -0,110 -0,38 21.09.17 0,66 % -4,53 % -2,73 % 6,76 % -20,35 %
Synopsys Inc. 80,060 -0,640 -0,79 21.09.17 -0,19 % 2,71 % 7,25 % 35,74 % 36,02 %
Sysco Corp. 53,870 -0,520 -0,96 21.09.17 2,26 % 5,28 % 0,97 % 8,41 % -2,71 %
T. Rowe Price Group Inc. 85,970 0,250 0,29 21.09.17 2,02 % 4,37 % 17,70 % 28,66 % 14,22 %
Target Corp. 58,330 -0,930 -1,57 21.09.17 -1,92 % 3,13 % 15,46 % -16,04 % -19,24 %
TE Connectivity Ltd. 82,210 -0,300 -0,36 21.09.17 1,14 % 4,98 % 4,10 % 28,63 % 18,66 %
TechnipFMC PLC 27,210 -0,390 -1,41 21.09.17 1,91 % 7,00 % 2,72 % -2,58 % -23,42 %
Texas Instruments Inc. 86,050 0,220 0,26 21.09.17 3,31 % 7,71 % 8,01 % 23,71 % 17,88 %
Textron Inc. 53,060 -0,060 -0,11 21.09.17 2,51 % 11,63 % 14,87 % 35,08 % 9,27 %
The Coca-Cola Co. 45,400 -0,380 -0,83 21.09.17 -1,54 % -0,61 % 0,40 % 6,75 % 9,50 %
The Goldman Sachs Group Inc. 231,290 1,500 0,65 21.09.17 1,96 % 4,76 % 3,96 % 38,47 % -3,41 %
The Home Depot Inc. 159,190 0,510 0,32 21.09.17 -0,12 % 6,70 % 1,66 % 24,26 % 18,73 %
The Priceline Group Inc. 1.866,350 0,140 0,01 21.09.17 1,14 % 3,60 % -0,08 % 27,48 % 27,30 %
The Procter & Gamble Co. 92,640 -1,760 -1,86 21.09.17 -0,97 % -0,24 % 3,62 % 5,51 % 10,18 %
The Walt Disney Co. 98,890 -0,320 -0,32 21.09.17 1,01 % -2,25 % -5,64 % 7,04 % -5,11 %
Thermo Fisher Scientific Inc. 187,910 -0,690 -0,37 21.09.17 -1,97 % 7,99 % 7,01 % 20,90 % 33,18 %
Tiffany & Co. 89,850 -0,080 -0,09 21.09.17 -1,21 % 2,31 % -1,60 % 24,33 % 16,04 %
Time Warner Inc. 102,490 -0,400 -0,39 21.09.17 1,47 % 0,37 % 3,26 % 33,69 % 6,17 %
TJX Companies Inc. 72,820 0,400 0,55 21.09.17 -0,53 % 1,90 % 4,93 % -4,31 % -3,07 %
Torchmark Corp. 78,650 0,030 0,04 21.09.17 2,24 % 2,78 % 3,30 % 20,61 % 6,63 %
Total System Services Inc. 68,810 1,360 2,02 21.09.17 2,46 % 4,45 % 17,04 % 45,57 % 40,34 %
Tractor Supply Co. 60,750 0,140 0,23 21.09.17 -2,80 % 10,94 % 15,01 % -10,36 % -19,88 %
TransDigm Group Inc. 264,270 5,020 1,94 21.09.17 3,75 % -2,64 % -1,37 % -6,52 % 6,15 %
Travelers Companies Inc.,The 121,490 -0,420 -0,34 21.09.17 1,28 % -4,68 % -5,51 % 4,80 % -0,76 %
Tripadvisor Inc. 44,240 0,320 0,73 21.09.17 2,96 % 9,29 % 23,51 % -26,92 % -4,59 %
Tyson Foods Inc. 65,330 -0,450 -0,68 21.09.17 -1,49 % 0,34 % 6,44 % -13,69 % 5,92 %
U.S. Bancorp 53,740 0,220 0,41 21.09.17 4,07 % 4,01 % 3,35 % 24,23 % 4,61 %
UDR Inc. 38,150 -0,280 -0,73 21.09.17 -2,05 % -3,02 % -4,86 % 6,39 % 4,58 %
Ulta Beauty Inc. 219,740 -4,100 -1,83 21.09.17 -1,87 % -6,18 % -23,92 % -8,33 % -13,81 %
Under Armour Inc. 16,490 -0,050 -0,30 21.09.17 -8,13 % -0,60 % -18,81 % -58,37 % -43,24 %
Under Armour Inc. 15,135 -0,105 -0,69 21.09.17 -8,38 % -0,10 % -19,28 % -55,87 % -39,87 %
Union Pacific Corp. 115,440 0,440 0,38 21.09.17 4,13 % 10,67 % 7,27 % 21,48 % 11,34 %
United Continental Holdg. Inc. 58,530 0,470 0,81 21.09.17 -4,44 % -9,75 % -24,57 % 16,52 % -19,69 %
United Parcel Service Inc. 117,260 -0,570 -0,48 21.09.17 -0,10 % 3,01 % 7,39 % 6,93 % 2,29 %
United Rentals Inc. 130,120 -0,620 -0,47 21.09.17 2,17 % 20,04 % 28,05 % 71,98 % 23,24 %
United Technologies Corp. 114,500 0,400 0,35 21.09.17 1,20 % -0,68 % -5,95 % 12,30 % 4,45 %
UnitedHealth Group Inc. 195,210 -0,540 -0,28 21.09.17 -1,27 % 1,66 % 5,56 % 39,53 % 21,98 %
Universal Health Services Inc. 108,430 -1,720 -1,56 21.09.17 -2,81 % 0,55 % -4,23 % -11,70 % 1,93 %
Unum Group 50,030 0,350 0,70 21.09.17 4,10 % 5,70 % 9,16 % 40,77 % 13,89 %
V.F. Corp. 61,850 -0,280 -0,45 21.09.17 -0,79 % -1,75 % 12,01 % 9,04 % 15,93 %
Valero Energy Corp. 73,360 0,180 0,25 21.09.17 4,89 % 13,38 % 13,42 % 31,75 % 7,38 %
Varian Medical Systems Inc. 104,630 -2,350 -2,20 21.09.17 -3,00 % 3,37 % 0,27 % 7,02 % 16,54 %
Ventas Inc. 67,520 -0,550 -0,81 21.09.17 -2,06 % 0,10 % -4,55 % -3,64 % 8,00 %
Verisign Inc. 105,770 -0,120 -0,11 21.09.17 2,30 % 6,88 % 13,45 % 34,00 % 39,04 %
Verisk Analytics Inc. 81,950 -0,140 -0,17 21.09.17 1,56 % 1,09 % -2,51 % 1,35 % 0,90 %
Verizon Communications Inc. 48,940 -0,540 -1,09 21.09.17 3,73 % 1,66 % 7,77 % -5,65 % -8,32 %
Vertex Pharmaceuticals Inc. 152,060 -0,660 -0,43 21.09.17 -0,86 % 2,05 % 12,78 % 65,61 % 106,41 %
Viacom Inc. 27,400 -0,320 -1,15 21.09.17 0,15 % -2,53 % -20,74 % -23,99 % -21,97 %
VISA Inc. 105,310 0,340 0,32 21.09.17 -0,73 % 2,02 % 11,39 % 26,54 % 34,98 %
Vornado Realty Trust 75,630 1,800 2,44 21.09.17 0,60 % 2,37 % -18,39 % -25,55 % -27,54 %
Vulcan Materials Co. 117,000 -1,200 -1,02 21.09.17 2,15 % 3,94 % -8,71 % 6,40 % -6,51 %
Wal-Mart Stores Inc. 80,010 -0,490 -0,61 21.09.17 0,41 % 0,38 % 4,94 % 10,83 % 15,76 %
Walgreens Boots Alliance Inc. 78,200 -0,640 -0,81 21.09.17 -4,65 % -2,98 % 0,10 % -2,95 % -5,54 %
Waste Management Inc. (Del.) 78,280 -0,110 -0,14 21.09.17 0,57 % 3,63 % 6,65 % 22,31 % 10,39 %
Waters Corp. 181,790 -2,070 -1,13 21.09.17 -3,98 % 0,89 % -1,96 % 16,00 % 35,27 %
WEC Energy Group Inc. 64,270 -0,230 -0,36 21.09.17 -2,34 % -0,73 % 0,63 % 2,83 % 9,58 %
Wells Fargo & Co. 54,060 0,310 0,58 21.09.17 5,40 % 4,32 % 2,04 % 17,96 % -1,91 %
Welltower Inc. 72,200 -1,000 -1,37 21.09.17 -3,02 % 0,31 % -6,42 % -2,88 % 7,87 %
Western Digital Corp. 85,490 -0,880 -1,02 21.09.17 -0,35 % 1,94 % -6,09 % 52,31 % 25,81 %
Western Union Co. 18,910 -0,040 -0,21 21.09.17 -0,16 % 0,16 % 0,37 % -6,34 % -12,94 %
WestRock Co. 57,610 -0,640 -1,10 21.09.17 0,33 % 6,04 % 1,11 % 19,30 % 13,47 %
Weyerhaeuser Co. 33,420 0,020 0,06 21.09.17 1,09 % 6,16 % -1,01 % 10,15 % 11,07 %
Whirlpool Corp. 172,690 2,310 1,36 21.09.17 -1,39 % 2,91 % -10,90 % 6,15 % -5,00 %
Williams Cos.Inc., The 29,990 -0,400 -1,32 21.09.17 -1,38 % 3,38 % 7,68 % -3,23 % -3,69 %
WILLIS TOWERS WATSON PLC 151,370 -1,040 -0,68 21.09.17 -0,69 % 1,64 % 1,86 % 17,89 % 23,79 %
Wyndham Worldwide Corp. 103,190 0,510 0,50 21.09.17 0,51 % 6,80 % -0,01 % 51,91 % 35,12 %
Wynn Resorts Ltd. 145,400 -0,290 -0,20 21.09.17 0,90 % 7,20 % 5,78 % 41,17 % 68,05 %
Xcel Energy Inc. 48,010 -0,120 -0,25 21.09.17 -2,22 % -2,44 % 0,97 % 12,83 % 17,96 %
Xerox Corp. 32,930 0,050 0,15 21.09.17 0,37 % 5,44 % 18,11 % -17,18 % -5,70 %
Xilinx Inc. 68,910 -0,590 -0,85 21.09.17 1,58 % 12,73 % 4,22 % 29,41 % 14,15 %
XL Group PLC 39,640 0,610 1,56 21.09.17 1,02 % -9,50 % -9,93 % 15,53 % 6,39 %
Xylem Inc. 63,930 -0,110 -0,17 21.09.17 1,46 % 7,79 % 19,41 % 23,39 % 29,10 %
Yum! Brands, Inc. 76,480 0,110 0,14 21.09.17 -0,88 % 0,83 % 2,80 % 22,15 % 20,76 %
Zimmer Biomet Holdings Inc. 113,060 -3,160 -2,72 21.09.17 -2,53 % 0,26 % -12,03 % -11,11 % 9,55 %
Zions Bancorporation 45,360 0,250 0,55 21.09.17 6,33 % 4,18 % 7,16 % 51,25 % 5,39 %
Zoetis Inc. 64,240 -0,240 -0,37 21.09.17 -1,55 % 4,71 % 1,97 % 25,81 % 20,01 %
Zum Index

Diese Seite benötigt Javascript
Bitte aktivieren Sie Javascript in Ihrem Browser, um diese Seite vollständig nutzen zu können. Ohne Javascript ist die Funktionalität der Seite stark eingeschränkt.